Time;durP1;ratioP1;P1;durP2;ratioP2;P2;SDS_P1;SDS_P2;PMS_P1;PMS_P2;Temp;Humidity;BMP_temperature;BMP_pressure;BME280_temperature;BME280_humidity;BME280_pressure;Samples;Min_cycle;Max_cycle;Signal;HPM_P1;HPM_P2
2021/06/19 00:00:04;;;;;;;9.02;4.53;;;24.40;62.30;;;;;;5049342;28;20037;-68
2021/06/19 00:02:29;;;;;;;10.07;4.65;;;24.30;62.40;;;;;;5047595;28;20516;-69
2021/06/19 00:04:55;;;;;;;12.75;4.50;;;24.20;62.70;;;;;;5042819;28;20033;-69
2021/06/19 00:07:20;;;;;;;7.50;4.20;;;24.20;63.00;;;;;;5048315;28;20028;-69
2021/06/19 00:09:46;;;;;;;11.82;4.22;;;24.20;63.00;;;;;;5048619;28;20029;-69
2021/06/19 00:12:12;;;;;;;14.30;4.45;;;24.20;63.00;;;;;;5049108;28;20033;-69
2021/06/19 00:14:37;;;;;;;6.80;4.10;;;24.20;63.10;;;;;;5046122;28;20059;-68
2021/06/19 00:17:03;;;;;;;7.55;4.40;;;24.20;63.20;;;;;;5040900;28;20367;-68
2021/06/19 00:19:29;;;;;;;13.77;4.55;;;24.20;63.30;;;;;;5045696;28;20079;-68
2021/06/19 00:21:54;;;;;;;10.88;4.05;;;24.20;63.40;;;;;;5031217;28;20437;-68
2021/06/19 00:24:22;;;;;;;7.07;4.18;;;24.20;63.40;;;;;;5031961;28;20133;-68
2021/06/19 00:26:48;;;;;;;13.63;4.43;;;24.20;63.40;;;;;;5037240;28;20029;-68
2021/06/19 00:29:15;;;;;;;7.10;4.05;;;24.10;63.60;;;;;;5046051;28;20078;-68
2021/06/19 00:31:41;;;;;;;9.63;4.25;;;24.10;63.60;;;;;;5016748;28;20028;-68
2021/06/19 00:34:07;;;;;;;10.00;4.50;;;24.10;63.60;;;;;;5031294;28;20392;-68
2021/06/19 00:36:32;;;;;;;9.80;3.90;;;24.00;63.90;;;;;;5021351;28;20540;-68
2021/06/19 00:38:58;;;;;;;10.43;4.45;;;24.00;63.80;;;;;;5043883;28;20122;-68
2021/06/19 00:41:24;;;;;;;7.07;3.97;;;24.00;63.80;;;;;;5029447;28;20378;-68
2021/06/19 00:43:49;;;;;;;11.93;4.65;;;24.00;64.00;;;;;;5032360;28;20052;-69
2021/06/19 00:46:15;;;;;;;7.70;4.20;;;24.00;64.90;;;;;;5046788;28;20037;-69
2021/06/19 00:48:41;;;;;;;15.13;4.47;;;24.00;64.30;;;;;;5046627;28;20028;-68
2021/06/19 00:51:06;;;;;;;10.00;4.43;;;24.00;64.30;;;;;;5049048;28;20029;-68
2021/06/19 00:53:32;;;;;;;11.52;4.05;;;24.00;64.50;;;;;;5048965;28;20331;-68
2021/06/19 00:55:59;;;;;;;17.48;5.53;;;24.00;64.70;;;;;;5019682;28;20029;-68
2021/06/19 00:58:25;;;;;;;8.77;4.40;;;23.90;64.60;;;;;;5020187;28;20068;-68
2021/06/19 01:00:51;;;;;;;9.63;4.43;;;23.90;64.70;;;;;;5014071;28;20048;-68
2021/06/19 01:03:16;;;;;;;8.40;4.13;;;23.90;64.60;;;;;;5041432;28;20029;-68
2021/06/19 01:05:43;;;;;;;6.35;4.13;;;23.80;65.00;;;;;;5040253;28;20033;-69
2021/06/19 01:08:09;;;;;;;10.68;5.05;;;23.80;65.10;;;;;;5044164;28;20099;-69
2021/06/19 01:10:35;;;;;;;10.32;4.40;;;23.80;65.30;;;;;;5025775;28;20485;-69
2021/06/19 01:13:00;;;;;;;10.10;4.18;;;23.90;65.30;;;;;;5026529;28;20051;-69
2021/06/19 01:15:27;;;;;;;10.07;4.32;;;23.90;65.30;;;;;;5028947;28;20044;-69
2021/06/19 01:17:53;;;;;;;7.05;3.75;;;23.90;65.40;;;;;;5028223;28;20213;-69
2021/06/19 01:20:20;;;;;;;4.47;3.92;;;24.00;65.50;;;;;;5047765;28;20064;-69
2021/06/19 01:22:52;;;;;;;7.05;4.13;;;24.00;65.50;;;;;;5048188;28;20037;-71
2021/06/19 01:25:32;;;;;;;8.15;4.40;;;23.90;65.30;;;;;;5051407;28;20151;-68
2021/06/19 01:27:59;;;;;;;6.25;4.35;;;23.80;65.30;;;;;;5050949;28;20059;-69
2021/06/19 01:30:26;;;;;;;9.35;4.13;;;23.70;65.30;;;;;;5051878;28;20105;-69
2021/06/19 01:32:53;;;;;;;8.85;4.15;;;23.70;65.80;;;;;;5036362;28;20684;-69
2021/06/19 01:35:20;;;;;;;6.63;4.05;;;23.60;66.00;;;;;;5032361;28;20079;-68
2021/06/19 01:37:49;;;;;;;10.02;4.07;;;23.60;65.90;;;;;;5036076;28;20035;-68
2021/06/19 01:40:18;;;;;;;11.38;4.18;;;23.60;66.10;;;;;;5052394;28;20029;-69
2021/06/19 01:42:46;;;;;;;9.85;3.92;;;23.50;66.30;;;;;;5049490;28;20130;-68
2021/06/19 01:45:13;;;;;;;11.15;4.38;;;23.50;66.30;;;;;;5037568;28;20030;-69
2021/06/19 01:47:39;;;;;;;10.35;3.97;;;23.50;66.10;;;;;;5048084;28;20052;-68
2021/06/19 01:50:13;;;;;;;8.02;3.97;;;23.50;66.00;;;;;;5051366;28;20478;-68
2021/06/19 01:52:39;;;;;;;11.30;3.38;;;23.50;65.80;;;;;;5021733;28;20029;-69
2021/06/19 01:55:06;;;;;;;13.15;3.78;;;23.50;65.30;;;;;;5047235;28;20025;-69
2021/06/19 01:57:32;;;;;;;12.27;3.28;;;23.50;65.20;;;;;;5051449;28;20078;-68
2021/06/19 02:00:05;;;;;;;13.68;3.58;;;23.50;65.00;;;;;;5040398;28;20037;-69
2021/06/19 02:02:31;;;;;;;7.57;3.40;;;23.50;64.90;;;;;;5037615;28;20044;-68
2021/06/19 02:04:57;;;;;;;9.15;3.40;;;23.40;64.70;;;;;;5050383;28;20025;-69
2021/06/19 02:07:22;;;;;;;12.13;3.58;;;23.40;64.70;;;;;;5041861;28;20091;-68
2021/06/19 02:09:48;;;;;;;7.22;3.25;;;23.40;64.80;;;;;;5051677;28;20065;-69
2021/06/19 02:12:15;;;;;;;9.23;3.25;;;23.40;64.80;;;;;;5034224;28;20377;-69
2021/06/19 02:14:40;;;;;;;8.20;3.15;;;23.40;65.00;;;;;;5021863;28;20021;-68
2021/06/19 02:17:06;;;;;;;10.13;3.55;;;23.40;65.20;;;;;;5122932;22;20542;-71
2021/06/19 02:19:31;;;;;;;8.68;3.40;;;23.50;65.40;;;;;;5028003;28;20444;-69
2021/06/19 02:21:57;;;;;;;14.93;3.67;;;23.40;65.90;;;;;;5049483;28;20027;-69
2021/06/19 02:24:23;;;;;;;7.90;3.95;;;23.50;66.30;;;;;;5036112;28;20029;-70
2021/06/19 02:26:48;;;;;;;11.18;3.58;;;23.50;66.90;;;;;;5045839;28;20024;-67
2021/06/19 02:29:14;;;;;;;7.38;3.90;;;23.50;67.00;;;;;;5045682;28;20037;-67
2021/06/19 02:31:40;;;;;;;6.93;3.58;;;23.40;67.60;;;;;;5038019;28;20025;-67
2021/06/19 02:34:05;;;;;;;11.02;3.75;;;23.40;67.80;;;;;;5031568;28;20643;-67
2021/06/19 02:36:31;;;;;;;10.73;3.95;;;23.40;68.00;;;;;;5050895;28;20029;-67
2021/06/19 02:38:57;;;;;;;12.60;4.15;;;23.30;68.10;;;;;;5044787;28;20488;-67
2021/06/19 02:41:22;;;;;;;11.20;3.65;;;23.30;68.40;;;;;;5050386;28;20053;-67
2021/06/19 02:43:48;;;;;;;10.50;3.95;;;23.30;68.50;;;;;;5051613;28;20069;-67
2021/06/19 02:46:13;;;;;;;9.02;3.83;;;23.30;68.50;;;;;;5039133;28;20030;-67
2021/06/19 02:48:40;;;;;;;7.15;3.72;;;23.30;68.70;;;;;;5046929;28;20044;-67
2021/06/19 02:51:05;;;;;;;9.43;3.95;;;23.30;68.80;;;;;;5034871;28;20029;-67
2021/06/19 02:53:31;;;;;;;14.98;3.95;;;23.20;68.90;;;;;;5048517;28;20033;-67
2021/06/19 02:55:57;;;;;;;12.52;4.13;;;23.20;69.10;;;;;;5047579;28;20087;-67
2021/06/19 02:58:23;;;;;;;9.15;4.22;;;23.20;69.20;;;;;;5050695;28;20480;-67
2021/06/19 03:00:50;;;;;;;12.90;4.13;;;23.20;69.10;;;;;;5051016;28;20038;-67
2021/06/19 03:03:15;;;;;;;7.95;3.70;;;23.10;69.20;;;;;;5045854;28;20025;-67
2021/06/19 03:05:41;;;;;;;9.40;3.80;;;23.10;69.40;;;;;;5050178;28;20115;-67
2021/06/19 03:08:07;;;;;;;6.80;3.63;;;23.10;69.40;;;;;;5050705;28;20078;-67
2021/06/19 03:10:35;;;;;;;7.18;3.25;;;23.10;69.50;;;;;;5050503;28;20116;-67
2021/06/19 03:13:02;;;;;;;10.50;3.70;;;23.00;69.60;;;;;;5051051;28;20437;-67
2021/06/19 03:15:28;;;;;;;11.20;4.07;;;22.90;69.90;;;;;;5048606;28;20358;-67
2021/06/19 03:17:54;;;;;;;7.30;2.92;;;22.90;70.10;;;;;;5047226;28;20110;-67
2021/06/19 03:20:20;;;;;;;10.82;3.28;;;22.90;70.00;;;;;;5031017;28;20029;-67
2021/06/19 03:22:57;;;;;;;11.25;3.58;;;22.90;70.00;;;;;;5039991;28;20025;-67
2021/06/19 03:25:35;;;;;;;13.77;4.07;;;22.90;70.10;;;;;;5048825;28;20029;-67
2021/06/19 03:28:03;;;;;;;11.50;3.53;;;22.80;70.10;;;;;;5045168;28;20025;-67
2021/06/19 03:30:31;;;;;;;8.65;4.20;;;22.80;70.00;;;;;;5050218;28;20421;-67
2021/06/19 03:32:57;;;;;;;10.18;3.80;;;22.70;70.20;;;;;;5048453;28;20063;-67
2021/06/19 03:35:23;;;;;;;10.88;4.18;;;22.70;70.10;;;;;;5048683;28;20049;-67
2021/06/19 03:37:50;;;;;;;7.47;4.00;;;22.70;70.20;;;;;;5047494;28;20095;-67
2021/06/19 03:40:17;;;;;;;9.20;4.93;;;22.60;70.20;;;;;;5049857;28;20029;-67
2021/06/19 03:42:44;;;;;;;9.95;4.32;;;22.50;70.40;;;;;;5049868;28;20025;-67
2021/06/19 03:45:11;;;;;;;12.25;4.07;;;22.40;70.60;;;;;;5043987;28;20716;-67
2021/06/19 03:47:41;;;;;;;12.38;4.43;;;22.40;70.70;;;;;;5049106;28;20053;-67
2021/06/19 03:50:09;;;;;;;12.00;3.97;;;22.30;71.00;;;;;;5037201;28;20029;-67
2021/06/19 03:52:34;;;;;;;11.75;4.47;;;22.30;71.00;;;;;;5043328;28;20051;-67
2021/06/19 03:55:00;;;;;;;16.30;4.63;;;22.30;71.10;;;;;;5044761;28;20029;-67
2021/06/19 03:57:31;;;;;;;13.98;4.53;;;22.20;71.20;;;;;;5041482;28;20381;-67
2021/06/19 03:59:57;;;;;;;15.50;4.20;;;22.30;71.30;;;;;;5035337;28;20081;-67
2021/06/19 04:02:23;;;;;;;10.10;3.83;;;22.20;71.10;;;;;;5036504;28;20029;-67
2021/06/19 04:04:49;;;;;;;10.73;4.10;;;22.20;70.90;;;;;;5049005;28;20040;-67
2021/06/19 04:07:15;;;;;;;9.65;4.25;;;22.10;71.00;;;;;;5043157;28;20392;-68
2021/06/19 04:09:41;;;;;;;10.90;4.60;;;22.10;71.20;;;;;;5049690;28;20534;-67
2021/06/19 04:12:07;;;;;;;11.38;4.50;;;22.10;71.20;;;;;;5047180;28;20053;-68
2021/06/19 04:14:33;;;;;;;9.02;4.60;;;22.10;71.30;;;;;;5031469;28;20105;-68
2021/06/19 04:16:59;;;;;;;13.60;4.80;;;22.00;71.20;;;;;;5048176;28;20645;-68
2021/06/19 04:19:24;;;;;;;11.30;4.68;;;22.00;71.30;;;;;;5049606;28;20025;-67
2021/06/19 04:21:50;;;;;;;13.15;5.15;;;22.00;71.50;;;;;;5045617;28;20025;-67
2021/06/19 04:24:16;;;;;;;14.65;5.07;;;21.90;71.80;;;;;;5033913;28;20025;-67
2021/06/19 04:26:42;;;;;;;10.00;5.25;;;21.90;72.00;;;;;;5048262;28;20029;-67
2021/06/19 04:29:07;;;;;;;13.73;5.28;;;21.80;71.90;;;;;;5030013;28;20028;-67
2021/06/19 04:31:33;;;;;;;10.27;4.78;;;21.80;72.20;;;;;;5033780;28;20033;-67
2021/06/19 04:33:59;;;;;;;11.57;4.85;;;21.70;72.50;;;;;;5032566;28;20029;-68
2021/06/19 04:36:27;;;;;;;10.95;4.57;;;21.70;72.50;;;;;;5042494;28;20108;-68
2021/06/19 04:38:54;;;;;;;11.02;4.70;;;21.70;72.70;;;;;;5048551;28;20095;-68
2021/06/19 04:41:30;;;;;;;10.05;4.47;;;21.70;72.90;;;;;;5045822;28;20056;-68
2021/06/19 04:46:21;;;;;;;15.40;4.80;;;21.60;72.90;;;;;;5037571;28;20056;-68
2021/06/19 04:48:47;;;;;;;10.02;4.28;;;21.70;73.10;;;;;;5044362;28;20031;-68
2021/06/19 04:51:13;;;;;;;14.00;4.53;;;21.70;72.90;;;;;;5041095;28;20017;-68
2021/06/19 04:53:39;;;;;;;10.82;4.43;;;21.70;72.80;;;;;;5044800;28;20036;-67
2021/06/19 04:56:05;;;;;;;14.45;4.75;;;21.70;73.00;;;;;;5045229;28;20025;-67
2021/06/19 04:58:30;;;;;;;8.65;4.45;;;21.70;73.00;;;;;;5037565;28;20030;-68
2021/06/19 05:00:56;;;;;;;15.55;5.03;;;21.70;73.00;;;;;;5037262;28;20036;-67
2021/06/19 05:03:23;;;;;;;14.10;4.10;;;21.70;72.90;;;;;;5051019;28;20021;-67
2021/06/19 05:05:51;;;;;;;12.68;4.32;;;21.80;73.00;;;;;;5050965;28;20033;-68
2021/06/19 05:08:17;;;;;;;9.80;4.07;;;21.80;72.90;;;;;;5034718;28;20037;-67
2021/06/19 05:10:42;;;;;;;9.52;5.30;;;21.80;73.20;;;;;;5033886;28;20103;-67
2021/06/19 05:13:08;;;;;;;11.73;4.90;;;21.80;73.00;;;;;;5038720;28;20041;-68
2021/06/19 05:15:34;;;;;;;11.85;4.85;;;21.90;73.30;;;;;;5033192;28;20021;-68
2021/06/19 05:17:59;;;;;;;12.18;4.72;;;21.90;72.90;;;;;;5047101;28;20083;-68
2021/06/19 05:20:28;;;;;;;13.55;4.75;;;22.00;72.80;;;;;;5046107;28;20116;-68
2021/06/19 05:22:56;;;;;;;12.95;5.03;;;22.00;72.70;;;;;;5047409;28;20025;-68
2021/06/19 05:25:22;;;;;;;11.95;4.35;;;22.00;72.60;;;;;;5045932;28;20034;-67
2021/06/19 05:27:48;;;;;;;13.30;4.80;;;22.00;72.60;;;;;;5046723;28;20044;-67
2021/06/19 05:30:14;;;;;;;19.23;5.40;;;22.00;72.50;;;;;;5025803;28;20025;-67
2021/06/19 05:32:40;;;;;;;10.00;5.05;;;22.00;72.40;;;;;;5052805;28;20106;-67
2021/06/19 05:35:06;;;;;;;15.63;8.85;;;22.10;72.60;;;;;;5045230;28;20501;-68
2021/06/19 05:37:31;;;;;;;13.75;5.28;;;22.10;72.50;;;;;;5049283;28;20033;-68
2021/06/19 05:39:57;;;;;;;9.38;5.10;;;22.00;72.60;;;;;;5052948;28;20104;-68
2021/06/19 05:42:23;;;;;;;13.63;4.38;;;22.10;73.00;;;;;;5051900;28;20033;-68
2021/06/19 05:44:48;;;;;;;11.07;4.97;;;22.10;72.50;;;;;;5054635;28;20826;-68
2021/06/19 05:47:14;;;;;;;9.10;4.90;;;22.10;72.50;;;;;;5052469;28;20437;-69
2021/06/19 05:49:41;;;;;;;16.42;5.10;;;22.10;72.50;;;;;;5049871;28;20031;-68
2021/06/19 05:52:06;;;;;;;10.48;4.65;;;22.00;72.30;;;;;;5049679;28;20013;-68
2021/06/19 05:54:38;;;;;;;8.68;4.63;;;22.00;72.50;;;;;;5051230;28;20087;-68
2021/06/19 05:57:06;;;;;;;13.57;5.13;;;22.00;72.50;;;;;;5051654;28;20104;-68
2021/06/19 05:59:32;;;;;;;15.77;5.30;;;22.00;72.70;;;;;;5034426;28;20036;-68
2021/06/19 06:01:57;;;;;;;11.38;4.70;;;22.00;72.70;;;;;;5031116;28;20098;-68
2021/06/19 06:04:23;;;;;;;11.63;5.15;;;22.00;72.90;;;;;;5037165;28;20481;-68
2021/06/19 06:06:48;;;;;;;10.88;4.97;;;22.00;72.90;;;;;;5043375;28;20480;-68
2021/06/19 06:09:14;;;;;;;9.32;4.40;;;22.10;73.00;;;;;;5052169;28;20021;-68
2021/06/19 06:11:40;;;;;;;14.38;4.72;;;22.10;72.80;;;;;;5045230;28;20037;-68
2021/06/19 06:14:08;;;;;;;13.05;4.70;;;22.20;72.90;;;;;;5051616;28;20029;-68
2021/06/19 06:16:34;;;;;;;15.68;5.88;;;22.20;72.80;;;;;;5051490;28;20047;-68
2021/06/19 06:19:00;;;;;;;12.70;5.43;;;22.30;72.80;;;;;;5051408;28;20040;-68
2021/06/19 06:21:26;;;;;;;10.77;4.68;;;22.40;72.80;;;;;;5038941;28;20474;-67
2021/06/19 06:23:51;;;;;;;19.80;4.82;;;22.50;72.80;;;;;;5031881;28;20546;-67
2021/06/19 06:26:17;;;;;;;13.30;4.40;;;22.50;72.70;;;;;;5049289;28;20116;-68
2021/06/19 06:28:43;;;;;;;9.70;4.32;;;22.60;72.60;;;;;;5049877;28;20036;-68
2021/06/19 06:31:09;;;;;;;13.52;5.00;;;22.70;72.60;;;;;;5037959;28;20021;-68
2021/06/19 06:33:34;;;;;;;10.75;5.35;;;22.70;72.70;;;;;;5048681;28;20024;-68
2021/06/19 06:36:00;;;;;;;14.10;5.30;;;22.80;72.60;;;;;;5048629;28;20035;-67
2021/06/19 06:38:25;;;;;;;12.50;4.82;;;23.00;72.30;;;;;;5045225;28;20439;-68
2021/06/19 06:40:51;;;;;;;16.60;4.60;;;23.00;71.90;;;;;;5039039;28;20035;-68
2021/06/19 06:43:17;;;;;;;12.88;4.93;;;23.10;72.10;;;;;;5020349;28;20025;-68
2021/06/19 06:45:43;;;;;;;12.63;4.32;;;23.30;72.00;;;;;;5050107;28;20436;-68
2021/06/19 06:48:08;;;;;;;12.18;4.55;;;23.40;71.90;;;;;;5047977;28;20445;-69
2021/06/19 06:50:34;;;;;;;9.48;4.65;;;23.50;71.50;;;;;;5050638;28;20081;-69
2021/06/19 06:52:59;;;;;;;10.43;4.63;;;23.50;71.40;;;;;;5050775;28;20460;-69
2021/06/19 06:55:25;;;;;;;14.20;5.15;;;23.50;71.30;;;;;;5038927;28;20025;-69
2021/06/19 06:57:51;;;;;;;12.38;4.40;;;23.60;71.40;;;;;;5051262;28;20119;-69
2021/06/19 07:00:17;;;;;;;13.48;4.88;;;23.60;71.30;;;;;;5050963;28;20330;-73
2021/06/19 07:02:43;;;;;;;12.40;4.80;;;23.70;71.40;;;;;;5032249;28;20039;-69
2021/06/19 07:05:10;;;;;;;15.57;4.53;;;24.00;71.30;;;;;;5039980;28;20392;-69
2021/06/19 07:07:36;;;;;;;14.50;4.20;;;24.30;70.90;;;;;;5049520;28;20078;-70
2021/06/19 07:10:04;;;;;;;13.48;4.35;;;24.60;70.70;;;;;;5049044;28;20017;-69
2021/06/19 07:12:29;;;;;;;9.65;4.63;;;24.90;70.10;;;;;;5049836;28;20031;-68
2021/06/19 07:14:55;;;;;;;10.60;4.43;;;25.20;69.40;;;;;;5049209;28;20020;-69
2021/06/19 07:17:20;;;;;;;21.42;4.40;;;25.20;69.50;;;;;;5050673;28;20742;-68
2021/06/19 07:19:46;;;;;;;12.32;4.45;;;25.40;69.10;;;;;;5046736;28;20033;-68
2021/06/19 07:22:11;;;;;;;12.48;4.60;;;25.60;68.20;;;;;;5050274;28;20029;-68
2021/06/19 07:24:37;;;;;;;13.27;4.32;;;25.90;67.90;;;;;;5048880;28;20128;-69
2021/06/19 07:27:04;;;;;;;12.80;4.95;;;26.00;68.10;;;;;;5043057;28;20033;-69
2021/06/19 07:29:30;;;;;;;16.42;4.50;;;26.20;67.50;;;;;;5030820;28;20021;-69
2021/06/19 07:31:56;;;;;;;15.10;5.10;;;26.30;66.70;;;;;;5047469;28;20390;-69
2021/06/19 07:34:21;;;;;;;14.35;7.30;;;26.30;67.00;;;;;;5032214;28;20025;-69
2021/06/19 07:36:47;;;;;;;32.33;18.88;;;26.40;66.80;;;;;;5034557;28;20055;-69
2021/06/19 07:39:14;;;;;;;13.18;5.13;;;26.60;66.30;;;;;;5022158;28;20083;-69
2021/06/19 07:41:39;;;;;;;14.10;4.18;;;26.70;66.00;;;;;;5037666;28;20051;-69
2021/06/19 07:44:05;;;;;;;379.80;127.57;;;27.00;65.90;;;;;;5043994;28;20697;-69
2021/06/19 07:46:31;;;;;;;80.65;30.98;;;27.10;65.10;;;;;;5049342;28;20024;-69
2021/06/19 07:48:56;;;;;;;301.33;140.23;;;27.20;64.70;;;;;;5050650;28;20473;-69
2021/06/19 07:51:22;;;;;;;32.10;16.60;;;27.40;64.60;;;;;;5049380;28;20021;-69
2021/06/19 07:53:48;;;;;;;13.77;5.85;;;27.80;64.10;;;;;;5049616;28;20021;-69
2021/06/19 07:56:13;;;;;;;13.23;5.57;;;28.20;63.10;;;;;;5048229;28;20417;-68
2021/06/19 07:58:39;;;;;;;14.27;4.43;;;28.50;62.70;;;;;;5047459;28;20103;-69
2021/06/19 08:01:05;;;;;;;11.70;4.22;;;28.90;62.00;;;;;;5045829;28;20469;-69
2021/06/19 08:03:30;;;;;;;11.77;4.03;;;29.30;61.20;;;;;;5047567;28;20029;-68
2021/06/19 08:05:56;;;;;;;12.60;4.15;;;29.50;60.20;;;;;;5049267;28;20481;-69
2021/06/19 08:08:21;;;;;;;16.30;3.83;;;29.80;60.00;;;;;;5050980;28;20053;-69
2021/06/19 08:10:49;;;;;;;10.60;3.65;;;30.20;59.50;;;;;;5049610;28;20025;-69
2021/06/19 08:13:15;;;;;;;9.52;4.20;;;30.60;58.60;;;;;;5049972;28;20032;-69
2021/06/19 08:15:41;;;;;;;10.80;3.30;;;31.00;57.60;;;;;;5049609;28;20104;-69
2021/06/19 08:18:07;;;;;;;14.88;3.58;;;31.30;57.10;;;;;;5080949;22;20080;-86
2021/06/19 08:20:33;;;;;;;13.15;4.20;;;31.70;56.40;;;;;;5031923;28;20108;-86
2021/06/19 08:22:59;;;;;;;11.38;3.88;;;32.10;56.40;;;;;;5028618;28;22701;-87
2021/06/19 08:25:24;;;;;;;11.13;3.92;;;32.40;55.50;;;;;;5024080;28;20095;-89
2021/06/19 08:27:50;;;;;;;12.60;3.83;;;32.80;54.50;;;;;;5032224;28;20642;-86
2021/06/19 08:30:16;;;;;;;9.10;3.92;;;33.10;53.60;;;;;;5049522;28;20020;-86
2021/06/19 08:32:41;;;;;;;13.68;3.92;;;33.40;53.10;;;;;;5029812;28;20045;-87
2021/06/19 08:35:08;;;;;;;16.40;4.43;;;33.70;52.40;;;;;;5028121;28;22700;-86
2021/06/19 08:37:34;;;;;;;12.13;3.95;;;34.10;51.50;;;;;;5033682;28;20033;-86
2021/06/19 08:39:59;;;;;;;12.55;3.95;;;34.40;50.80;;;;;;5033100;28;20040;-86
2021/06/19 08:42:26;;;;;;;8.25;4.22;;;34.70;50.50;;;;;;5033986;28;20025;-86
2021/06/19 08:44:52;;;;;;;12.23;3.58;;;35.10;50.00;;;;;;5032849;28;20037;-86
2021/06/19 08:47:18;;;;;;;10.63;3.63;;;35.60;48.90;;;;;;5051166;28;20029;-87
2021/06/19 08:49:46;;;;;;;12.10;3.88;;;36.10;48.20;;;;;;5031965;28;20056;-86
2021/06/19 08:52:12;;;;;;;11.55;3.85;;;36.50;46.70;;;;;;5032706;28;20036;-88
2021/06/19 08:54:40;;;;;;;12.55;4.22;;;36.80;46.10;;;;;;5048954;28;20073;-88
2021/06/19 08:57:11;;;;;;;9.57;3.40;;;37.00;45.50;;;;;;5033015;28;20049;-87
2021/06/19 08:59:38;;;;;;;8.27;3.75;;;37.00;45.70;;;;;;5049164;28;20098;-86
2021/06/19 09:02:06;;;;;;;15.45;4.20;;;37.40;45.50;;;;;;5030711;28;20057;-85
2021/06/19 09:04:51;;;;;;;8.43;3.30;;;37.80;44.80;;;;;;5050150;28;20106;-87
2021/06/19 09:07:37;;;;;;;16.23;3.42;;;38.20;45.20;;;;;;5030920;28;20033;-87
2021/06/19 09:10:23;;;;;;;8.43;3.13;;;38.60;43.70;;;;;;5020341;28;20033;-88
2021/06/19 09:13:14;;;;;;;11.57;3.60;;;39.00;42.20;;;;;;5049324;28;20021;-87
2021/06/19 09:15:45;;;;;;;8.30;3.30;;;39.40;42.10;;;;;;5032451;28;20485;-87
2021/06/19 09:18:19;;;;;;;11.23;2.65;;;39.70;41.30;;;;;;5031590;28;20033;-87
2021/06/19 09:20:51;;;;;;;10.23;3.33;;;39.90;40.20;;;;;;5029212;28;20032;-87
2021/06/19 09:23:39;;;;;;;13.82;3.30;;;40.00;39.60;;;;;;5023327;28;20366;-87
2021/06/19 09:26:12;;;;;;;8.88;3.28;;;40.20;40.30;;;;;;5021837;28;20241;-88
2021/06/19 09:29:05;;;;;;;8.98;3.33;;;40.50;39.80;;;;;;5027431;28;20033;-87
2021/06/19 09:31:36;;;;;;;15.48;3.60;;;40.60;39.50;;;;;;5036931;28;20116;-87
2021/06/19 09:34:11;;;;;;;10.90;3.55;;;40.70;39.00;;;;;;5022499;28;20028;-87
2021/06/19 09:36:37;;;;;;;8.45;3.40;;;40.90;38.80;;;;;;5030891;28;20021;-88
2021/06/19 09:39:08;;;;;;;10.88;3.85;;;41.00;38.40;;;;;;5041898;28;20139;-88
2021/06/19 09:41:42;;;;;;;14.50;4.30;;;41.10;38.10;;;;;;5024397;28;20112;-91
2021/06/19 09:44:08;;;;;;;12.30;4.85;;;41.20;37.90;;;;;;5037715;28;20105;-90
2021/06/19 09:46:34;;;;;;;10.75;3.13;;;40.90;38.00;;;;;;5036159;28;20029;-90
2021/06/19 09:49:15;;;;;;;10.35;3.53;;;40.90;38.40;;;;;;5035471;28;20033;-90
2021/06/19 09:51:51;;;;;;;9.35;3.67;;;40.90;38.40;;;;;;5033659;28;20049;-91
2021/06/19 09:54:18;;;;;;;12.18;2.90;;;40.70;38.60;;;;;;5048887;28;20096;-90
2021/06/19 09:56:53;;;;;;;11.85;3.55;;;40.70;38.60;;;;;;5024446;28;20040;-90
2021/06/19 09:59:20;;;;;;;6.57;3.00;;;40.80;38.30;;;;;;5031179;28;20393;-91
2021/06/19 10:01:46;;;;;;;9.52;3.22;;;40.80;38.30;;;;;;5033295;28;20554;-89
2021/06/19 10:04:15;;;;;;;13.50;3.38;;;40.70;38.30;;;;;;5027168;28;20401;-90
2021/06/19 10:06:42;;;;;;;10.30;2.97;;;40.70;38.60;;;;;;5050922;28;20021;-90
2021/06/19 10:09:08;;;;;;;10.73;3.53;;;40.60;38.50;;;;;;5030898;28;20507;-88
2021/06/19 10:11:35;;;;;;;9.10;2.92;;;40.50;39.00;;;;;;5038005;28;20040;-90
2021/06/19 10:14:02;;;;;;;10.55;3.42;;;40.40;39.00;;;;;;5036197;28;20024;-91
2021/06/19 10:16:29;;;;;;;9.73;3.22;;;40.30;38.80;;;;;;5035646;28;20017;-91
2021/06/19 10:18:56;;;;;;;12.95;3.17;;;40.20;39.00;;;;;;5049932;28;20047;-91
2021/06/19 10:21:24;;;;;;;15.00;3.65;;;40.00;38.40;;;;;;5034486;28;20122;-89
2021/06/19 10:23:50;;;;;;;12.45;3.33;;;39.80;38.20;;;;;;5024767;28;20029;-90
2021/06/19 10:26:21;;;;;;;9.50;3.30;;;39.50;38.10;;;;;;5033589;28;20119;-91
2021/06/19 10:28:54;;;;;;;14.38;3.50;;;39.20;38.60;;;;;;5036632;28;20472;-91
2021/06/19 10:31:20;;;;;;;10.85;3.40;;;39.00;38.30;;;;;;5027392;28;20039;-91
2021/06/19 10:33:46;;;;;;;11.13;3.08;;;38.80;38.60;;;;;;5027806;28;20507;-90
2021/06/19 10:36:15;;;;;;;16.38;3.50;;;38.70;38.70;;;;;;5052602;28;20032;-90
2021/06/19 10:38:57;;;;;;;11.20;3.22;;;38.50;38.70;;;;;;5018755;28;20493;-89
2021/06/19 10:41:42;;;;;;;12.93;3.38;;;38.40;38.70;;;;;;5033257;28;20117;-90
2021/06/19 10:44:07;;;;;;;9.15;2.90;;;38.10;39.30;;;;;;5036602;28;20021;-91
2021/06/19 10:46:39;;;;;;;8.90;3.28;;;37.90;39.50;;;;;;5033383;28;20070;-94
2021/06/19 10:49:19;;;;;;;12.68;3.08;;;37.80;39.90;;;;;;5035040;28;20036;-91
2021/06/19 10:51:45;;;;;;;9.32;3.10;;;37.60;39.60;;;;;;5031427;28;20386;-91
2021/06/19 10:54:21;;;;;;;12.02;3.25;;;37.40;40.10;;;;;;5034512;28;20139;-91
2021/06/19 10:56:52;;;;;;;17.75;3.30;;;37.20;39.90;;;;;;5024371;28;20187;-90
2021/06/19 10:59:28;;;;;;;9.60;3.00;;;37.10;39.10;;;;;;5035683;28;20032;-90
2021/06/19 11:01:59;;;;;;;13.40;3.65;;;37.00;39.60;;;;;;5033971;28;20024;-90
2021/06/19 11:04:40;;;;;;;14.90;3.67;;;36.90;39.00;;;;;;5036294;28;20017;-90
2021/06/19 11:07:09;;;;;;;13.75;2.83;;;36.60;38.70;;;;;;5033894;28;20485;-90
2021/06/19 11:09:39;;;;;;;13.65;3.33;;;36.30;39.40;;;;;;5034684;28;20493;-90
2021/06/19 11:12:08;;;;;;;14.70;3.80;;;36.20;39.70;;;;;;5037308;28;20396;-89
2021/06/19 11:14:44;;;;;;;11.77;3.15;;;36.10;40.10;;;;;;5033826;28;20021;-90
2021/06/19 11:17:22;;;;;;;16.58;3.47;;;36.00;40.20;;;;;;5034814;28;20021;-89
2021/06/19 11:19:50;;;;;;;14.70;3.53;;;35.90;40.20;;;;;;5029453;28;20037;-90
2021/06/19 11:22:34;;;;;;;9.55;3.53;;;35.90;40.40;;;;;;5037296;28;20435;-90
2021/06/19 11:25:15;;;;;;;12.13;2.78;;;35.70;40.40;;;;;;5036254;28;20067;-91
2021/06/19 11:27:57;;;;;;;16.33;3.30;;;35.60;40.70;;;;;;5019503;28;20397;-90
2021/06/19 11:30:38;;;;;;;14.88;2.97;;;35.60;40.90;;;;;;5034951;28;20021;-90
2021/06/19 11:33:15;;;;;;;12.82;3.00;;;35.60;41.10;;;;;;5031503;28;20029;-90
2021/06/19 11:35:46;;;;;;;9.02;3.47;;;35.50;40.80;;;;;;5036130;28;20121;-91
2021/06/19 11:38:13;;;;;;;12.77;2.93;;;35.20;40.70;;;;;;5035679;28;20032;-92
2021/06/19 11:40:43;;;;;;;10.23;3.15;;;35.00;40.80;;;;;;5035068;28;20183;-90
2021/06/19 11:43:11;;;;;;;10.35;3.28;;;34.80;41.00;;;;;;5038059;28;20017;-91
2021/06/19 11:45:56;;;;;;;16.13;3.10;;;34.80;41.00;;;;;;5037433;28;20175;-92
2021/06/19 11:48:22;;;;;;;10.68;3.55;;;34.80;41.00;;;;;;5036624;28;20028;-92
2021/06/19 11:51:07;;;;;;;9.68;3.28;;;34.70;41.20;;;;;;5037944;28;20033;-90
2021/06/19 11:53:44;;;;;;;11.43;3.45;;;34.80;41.60;;;;;;5033292;28;20029;-90
2021/06/19 11:56:40;;;;;;;10.57;3.42;;;34.80;42.20;;;;;;5033804;28;20393;-91
2021/06/19 11:59:12;;;;;;;12.57;3.70;;;34.80;42.00;;;;;;5027028;28;20489;-89
2021/06/19 12:01:59;;;;;;;11.55;3.28;;;34.60;41.80;;;;;;5033309;28;20039;-90
2021/06/19 12:04:31;;;;;;;11.07;3.72;;;34.50;42.10;;;;;;5033462;28;20029;-89
2021/06/19 12:07:01;;;;;;;9.65;3.53;;;34.40;42.10;;;;;;5030779;28;20612;-88
2021/06/19 12:09:32;;;;;;;11.40;4.03;;;34.30;42.70;;;;;;5033374;28;20579;-90
2021/06/19 12:12:00;;;;;;;16.17;3.67;;;34.20;43.20;;;;;;5034509;28;20163;-90
2021/06/19 12:14:34;;;;;;;13.30;3.85;;;34.30;43.40;;;;;;5031887;28;20386;-89
2021/06/19 12:17:03;;;;;;;8.65;3.45;;;34.30;43.50;;;;;;5051201;28;20035;-90
2021/06/19 12:19:31;;;;;;;11.10;4.00;;;34.30;43.60;;;;;;5031858;28;20025;-89
2021/06/19 12:21:59;;;;;;;10.75;3.72;;;34.30;43.60;;;;;;5036860;28;20031;-89
2021/06/19 12:24:32;;;;;;;10.68;3.28;;;34.20;43.60;;;;;;5030810;28;20032;-90
2021/06/19 12:27:07;;;;;;;20.27;4.43;;;34.20;43.40;;;;;;5033346;28;20497;-89
2021/06/19 12:29:44;;;;;;;10.02;3.72;;;34.20;43.40;;;;;;5034159;28;20040;-89
2021/06/19 12:32:41;;;;;;;17.30;3.67;;;34.30;43.20;;;;;;5033836;28;20029;-90
2021/06/19 12:35:13;;;;;;;12.98;3.42;;;34.30;43.20;;;;;;5026505;28;20528;-89
2021/06/19 12:38:00;;;;;;;12.45;4.05;;;34.20;43.20;;;;;;5028435;28;20029;-89
2021/06/19 12:40:34;;;;;;;15.50;4.13;;;34.10;43.00;;;;;;5025560;28;20071;-89
2021/06/19 12:43:01;;;;;;;13.48;3.30;;;33.80;43.30;;;;;;5031930;28;20021;-90
2021/06/19 12:45:36;;;;;;;14.40;3.50;;;33.70;43.70;;;;;;5023813;28;20045;-91